Bay Head, New Jersey
Current Conditions -  °F | °C
As of 10:35 AM on Thursday 23 Oct 2014 (Local Time) from KBLM Reporting Station
Overcast Overcast  
Wind Chill: 52°   Ceiling: 1400
Heat Index: 52°   Visibility: 10mi
Dew Point: 45°   Wind: 13mph
Humidity: 76%   Direction: 320°NW
Pressure: 29.7"   Gusts: 20mph
Location:  40.0839°N, 74.0496°W
Report Text: KBLM 231435Z AUTO 32011G17KT 10SM BKN014 OVC020 11/07 A2970 RMK AO1 P0001
Loading
Personal Weather Stations






























Interactive Weather Map
Tropical Storm Tracking
New forecast layout! Learn more

10-Day Weather Forecast

Advertisements
Track Severe Weather on mobile